createdAt,value
2019-03-24T00:00:49.151Z,58.10
2019-03-24T00:06:18.567Z,58.20
2019-03-24T00:11:47.929Z,58.40
2019-03-24T00:17:17.399Z,58.50
2019-03-24T00:22:46.718Z,58.70
2019-03-24T00:28:16.198Z,58.90
2019-03-24T00:33:45.546Z,58.90
2019-03-24T00:39:14.948Z,59.90
2019-03-24T00:44:44.305Z,59.40
2019-03-24T00:50:13.927Z,59.30
2019-03-24T00:55:43.383Z,59.40
2019-03-24T01:01:12.696Z,59.70
2019-03-24T01:06:42.138Z,59.70
2019-03-24T01:12:12.385Z,59.80
2019-03-24T01:17:41.804Z,59.90
2019-03-24T01:23:11.185Z,60.00
2019-03-24T01:28:40.510Z,60.90
2019-03-24T01:34:10.096Z,60.30
2019-03-24T01:39:39.408Z,60.40
2019-03-24T01:45:11.691Z,60.50
2019-03-24T01:50:41.149Z,60.60
2019-03-24T01:56:10.923Z,60.90
2019-03-24T02:01:40.225Z,61.00
2019-03-24T02:07:09.628Z,61.00
2019-03-24T02:12:39.565Z,61.10
2019-03-24T02:18:08.960Z,61.30
2019-03-24T02:23:38.327Z,61.30
2019-03-24T02:29:07.706Z,61.40
2019-03-24T02:34:37.051Z,61.50
2019-03-24T02:40:08.678Z,61.60
2019-03-24T02:45:38.009Z,61.70
2019-03-24T02:51:07.355Z,61.90
2019-03-24T02:56:36.750Z,61.90
2019-03-24T03:02:06.423Z,61.90
2019-03-24T03:07:35.895Z,62.90
2019-03-24T03:13:05.381Z,62.20
2019-03-24T03:18:34.781Z,62.40
2019-03-24T03:24:04.331Z,62.80
2019-03-24T03:29:33.701Z,63.00
2019-03-24T03:35:04.488Z,62.90
2019-03-24T03:40:34.253Z,62.90
2019-03-24T03:46:03.887Z,63.00
2019-03-24T03:51:33.345Z,63.10
2019-03-24T03:57:02.901Z,63.10
2019-03-24T04:02:33.237Z,63.30
2019-03-24T04:08:03.175Z,63.10
2019-03-24T04:13:32.646Z,63.40
2019-03-24T04:19:02.034Z,63.50
2019-03-24T04:24:31.433Z,63.60
2019-03-24T04:30:01.060Z,63.70
2019-03-24T04:35:30.463Z,64.60
2019-03-24T04:41:00.134Z,63.90
2019-03-24T04:46:29.545Z,63.90
2019-03-24T04:52:00.241Z,64.00
2019-03-24T04:57:29.643Z,64.10
2019-03-24T05:02:59.186Z,64.30
2019-03-24T05:08:29.507Z,64.30
2019-03-24T05:13:59.100Z,65.10
2019-03-24T05:19:28.851Z,64.60
2019-03-24T05:24:58.255Z,64.60
2019-03-24T05:30:27.919Z,64.60
2019-03-24T05:35:57.450Z,64.70
2019-03-24T05:41:26.995Z,64.80
2019-03-24T05:46:56.517Z,64.90
2019-03-24T05:52:27.686Z,65.00
2019-03-24T05:57:57.718Z,64.90
2019-03-24T06:03:27.295Z,65.00
2019-03-24T06:08:56.916Z,65.00
2019-03-24T06:14:26.450Z,65.00
2019-03-24T06:19:55.987Z,65.10
2019-03-24T06:25:25.643Z,65.10
2019-03-24T06:30:55.077Z,64.90
2019-03-24T06:36:24.658Z,64.70
2019-03-24T06:41:54.040Z,64.60
2019-03-24T06:47:23.581Z,64.50
2019-03-24T06:52:54.351Z,64.20
2019-03-24T06:58:24.572Z,63.90
2019-03-24T07:03:53.995Z,63.70
2019-03-24T07:09:23.424Z,63.40
2019-03-24T07:14:52.735Z,63.20
2019-03-24T07:20:22.345Z,62.70
2019-03-24T07:25:52.049Z,62.30
2019-03-24T07:31:22.161Z,62.00
2019-03-24T07:36:53.655Z,61.80
2019-03-24T07:42:23.036Z,61.60
2019-03-24T07:47:53.176Z,61.00
2019-03-24T07:53:22.669Z,60.70
2019-03-24T07:58:54.024Z,60.10
2019-03-24T08:04:28.038Z,59.70
2019-03-24T08:09:57.606Z,58.30
2019-03-24T08:15:28.350Z,58.10
2019-03-24T08:21:00.955Z,57.80
2019-03-24T08:26:34.876Z,57.20
2019-03-24T08:32:04.281Z,56.80
2019-03-24T08:37:33.852Z,56.40
2019-03-24T08:43:03.677Z,55.90
2019-03-24T08:48:40.781Z,55.60
2019-03-24T08:54:07.233Z,55.00
2019-03-24T08:59:39.940Z,54.50
2019-03-24T09:05:10.788Z,53.90
2019-03-24T09:10:41.070Z,53.70
2019-03-24T09:16:11.063Z,53.60
2019-03-24T09:21:41.521Z,52.80
2019-03-24T09:27:11.702Z,52.20
2019-03-24T09:32:41.113Z,52.00
2019-03-24T09:38:10.543Z,51.30
2019-03-24T09:43:39.986Z,50.90
2019-03-24T09:49:09.766Z,50.70
2019-03-24T09:54:39.180Z,50.30
2019-03-24T10:00:08.857Z,50.30
2019-03-24T10:05:38.252Z,50.00
2019-03-24T10:11:14.584Z,49.90
2019-03-24T10:16:44.064Z,49.20
2019-03-24T10:22:13.512Z,48.70
2019-03-24T10:27:42.973Z,48.60
2019-03-24T10:33:13.536Z,47.90
2019-03-24T10:38:45.238Z,47.50
2019-03-24T10:44:14.979Z,46.60
2019-03-24T10:49:44.605Z,46.20
2019-03-24T10:55:14.900Z,46.10
2019-03-24T11:00:46.668Z,45.20
2019-03-24T11:06:15.988Z,45.10
2019-03-24T11:11:45.487Z,44.40
2019-03-24T11:17:14.933Z,43.90
2019-03-24T11:22:45.358Z,43.70
2019-03-24T11:28:14.813Z,43.60
2019-03-24T11:33:44.197Z,42.30
2019-03-24T11:39:13.789Z,41.70
2019-03-24T11:44:43.363Z,41.00
2019-03-24T11:50:13.180Z,41.20
2019-03-24T11:55:42.754Z,41.30
2019-03-24T12:01:12.247Z,40.70
2019-03-24T12:06:42.042Z,40.10
2019-03-24T12:12:11.510Z,39.70
2019-03-24T12:17:41.158Z,39.80
2019-03-24T12:23:10.514Z,38.80
2019-03-24T12:28:39.886Z,39.50
2019-03-24T12:34:11.464Z,39.00
2019-03-24T12:39:40.891Z,39.00
2019-03-24T12:45:12.068Z,38.80
2019-03-24T12:50:41.578Z,38.80
2019-03-24T12:56:11.025Z,38.60
2019-03-24T13:01:40.694Z,38.90
2019-03-24T13:07:10.028Z,36.80
2019-03-24T13:12:39.640Z,33.80
2019-03-24T13:18:10.577Z,33.10
2019-03-24T13:23:39.892Z,33.20
2019-03-24T13:29:09.286Z,34.70
2019-03-24T13:34:38.671Z,35.20
2019-03-24T13:40:08.448Z,35.50
2019-03-24T13:45:37.901Z,35.30
2019-03-24T13:51:08.421Z,34.90
2019-03-24T13:56:38.016Z,34.40
2019-03-24T14:02:09.258Z,33.80
2019-03-24T14:07:38.646Z,32.80
2019-03-24T14:13:08.008Z,31.40
2019-03-24T14:18:40.382Z,30.70
2019-03-24T14:24:09.848Z,29.70
2019-03-24T14:29:39.363Z,29.00
2019-03-24T14:35:09.577Z,28.10
2019-03-24T14:40:39.138Z,28.30
2019-03-24T14:46:09.010Z,26.70
2019-03-24T14:51:38.639Z,26.70
2019-03-24T14:57:08.743Z,26.60
2019-03-24T15:02:38.071Z,26.30
2019-03-24T15:08:08.015Z,26.00
2019-03-24T15:13:37.329Z,25.90
2019-03-24T15:19:07.284Z,26.10
2019-03-24T15:24:36.725Z,26.00
2019-03-24T15:30:09.094Z,26.40
2019-03-24T15:35:38.684Z,27.00
2019-03-24T15:41:08.322Z,27.60
2019-03-24T15:46:37.947Z,28.50
2019-03-24T15:52:07.426Z,28.90
2019-03-24T15:57:38.066Z,29.70
2019-03-24T16:03:07.559Z,29.60
2019-03-24T16:08:38.004Z,29.70
2019-03-24T16:14:07.578Z,30.10
2019-03-24T16:19:38.636Z,30.10
2019-03-24T16:25:08.850Z,30.40
2019-03-24T16:30:39.418Z,31.20
2019-03-24T16:36:12.342Z,32.30
2019-03-24T16:41:41.953Z,33.20
2019-03-24T16:47:11.377Z,34.10
2019-03-24T16:52:42.355Z,34.80
2019-03-24T16:58:13.493Z,35.40
2019-03-24T17:03:42.968Z,36.50
2019-03-24T17:09:12.483Z,37.50
2019-03-24T17:14:41.996Z,38.40
2019-03-24T17:20:11.545Z,39.10
2019-03-24T17:25:41.013Z,39.60
2019-03-24T17:31:10.535Z,40.20
2019-03-24T17:36:42.522Z,40.50
2019-03-24T17:42:11.917Z,41.10
2019-03-24T17:47:41.564Z,41.30
2019-03-24T17:53:10.989Z,41.90
2019-03-24T17:58:40.368Z,42.20
2019-03-24T18:04:10.049Z,43.00
2019-03-24T18:09:40.436Z,43.70
2019-03-24T18:15:11.235Z,44.50
2019-03-24T18:20:40.782Z,46.00
2019-03-24T18:26:10.279Z,46.60
2019-03-24T18:31:39.961Z,47.60
2019-03-24T18:37:09.528Z,48.00
2019-03-24T18:42:39.412Z,49.00
2019-03-24T18:48:08.973Z,51.00
2019-03-24T18:53:38.495Z,51.90
2019-03-24T18:59:08.211Z,52.70
2019-03-24T19:04:37.819Z,53.30
2019-03-24T19:10:09.878Z,53.70
2019-03-24T19:15:39.493Z,53.80
2019-03-24T19:21:09.844Z,54.40
2019-03-24T19:26:39.673Z,53.70
2019-03-24T19:32:11.107Z,53.40
2019-03-24T19:37:42.106Z,53.30
2019-03-24T19:43:11.763Z,53.20
2019-03-24T19:48:41.222Z,53.40
2019-03-24T19:54:22.569Z,53.30
2019-03-24T19:59:52.841Z,53.10
2019-03-24T20:05:22.273Z,53.30
2019-03-24T20:10:51.821Z,53.40
2019-03-24T20:16:22.588Z,53.70
2019-03-24T20:21:58.428Z,53.80
2019-03-24T20:27:32.049Z,54.20
2019-03-24T20:33:02.204Z,54.50
2019-03-24T20:38:31.773Z,55.00
2019-03-24T20:44:05.535Z,55.60
2019-03-24T20:49:37.016Z,55.80
2019-03-24T20:55:08.185Z,56.20
2019-03-24T21:00:38.423Z,56.70
2019-03-24T21:06:08.203Z,56.70
2019-03-24T21:11:37.877Z,57.00
2019-03-24T21:17:07.529Z,57.10
2019-03-24T21:22:41.737Z,57.20
2019-03-24T21:28:11.243Z,58.00
2019-03-24T21:33:41.204Z,57.80
2019-03-24T21:39:16.908Z,58.70
2019-03-24T21:44:48.501Z,59.00
2019-03-24T21:50:18.009Z,59.60
2019-03-24T21:55:47.522Z,59.10
2019-03-24T22:01:16.977Z,59.30
2019-03-24T22:06:47.304Z,59.50
2019-03-24T22:12:16.731Z,59.90
2019-03-24T22:17:46.152Z,59.90
2019-03-24T22:23:15.500Z,60.10
2019-03-24T22:28:45.191Z,60.40
2019-03-24T22:34:14.651Z,60.60
2019-03-24T22:39:44.003Z,60.90
2019-03-24T22:45:13.654Z,60.80
2019-03-24T22:50:43.124Z,61.60
2019-03-24T22:56:12.586Z,61.20
2019-03-24T23:01:42.085Z,61.20
2019-03-24T23:07:11.671Z,61.60
2019-03-24T23:12:41.162Z,61.50
2019-03-24T23:18:10.617Z,61.50
2019-03-24T23:23:41.378Z,61.90
2019-03-24T23:29:10.761Z,62.00
2019-03-24T23:34:40.310Z,62.80
2019-03-24T23:40:10.120Z,62.30
2019-03-24T23:45:39.971Z,62.40
2019-03-24T23:51:10.597Z,62.50
2019-03-24T23:56:39.931Z,62.60
